Terminal Aerodrome Forecast
Issued by NWS Twin Cities, MN

Home | Current Version | Previous Version | Text Only | Print | Product List | Glossary Off
Versions: 1 2 3 4 5 6 7 8 9 10 11 12 13 14 15 16 17 18 19 20 21 22 23 24 25 26 27 28 29 30

000
FTUS43 KMPX 232005 AAA
TAFMSP
TAF AMD
KMSP 232005Z 2320/2424 13011G17KT P6SM SCT025 BKN040
     FM232030 14012G19KT 2SM -TSRA FEW015 BKN025 BKN035CB
     FM232200 15012KT P6SM SCT030 BKN060
     FM240200 17011KT P6SM VCTS BKN050CB
     FM240700 23008KT P6SM SCT060 BKN100
     FM240800 28005KT P6SM SCT250=

USA.gov is the U.S. government's official web portal to all federal, state and local government web resources and services.